Time;durP1;ratioP1;P1;durP2;ratioP2;P2;SDS_P1;SDS_P2;PMS_P1;PMS_P2;Temp;Humidity;BMP_temperature;BMP_pressure;BME280_temperature;BME280_humidity;BME280_pressure;Samples;Min_cycle;Max_cycle;Signal;HPM_P1;HPM_P2
2022/12/22 03:25:51;;;;;;;4.60;3.90;;;11.60;79.10;;;;;;5047532;28;20078;-88
2022/12/22 03:28:18;;;;;;;6.20;4.35;;;11.60;79.10;;;;;;5058496;28;20037;-88
2022/12/22 03:30:44;;;;;;;4.50;3.70;;;11.60;79.10;;;;;;5058981;28;20036;-88
2022/12/22 03:33:09;;;;;;;4.35;3.88;;;11.60;79.10;;;;;;5041254;28;20032;-87
2022/12/22 03:35:35;;;;;;;4.68;4.10;;;11.70;79.20;;;;;;5058716;28;20484;-88
2022/12/22 03:38:02;;;;;;;5.00;4.07;;;11.60;79.10;;;;;;5075003;28;20029;-88
2022/12/22 03:40:31;;;;;;;5.43;4.20;;;11.70;79.20;;;;;;5041707;28;20076;-88
2022/12/22 03:48:25;;;;;;;4.40;3.75;;;11.70;79.10;;;;;;5061444;28;20045;-88
2022/12/22 03:50:51;;;;;;;4.97;4.25;;;11.70;79.10;;;;;;5058320;28;20036;-88
2022/12/22 03:53:17;;;;;;;4.95;4.22;;;11.70;79.10;;;;;;5058837;28;20069;-88
2022/12/22 03:55:43;;;;;;;5.60;4.35;;;11.70;79.10;;;;;;5041591;28;20043;-88
2022/12/22 03:58:08;;;;;;;4.95;3.97;;;11.70;79.10;;;;;;5075569;28;20020;-88
2022/12/22 04:00:37;;;;;;;4.45;3.88;;;11.70;79.10;;;;;;5041640;28;20044;-89
2022/12/22 04:03:02;;;;;;;5.05;4.45;;;11.70;79.10;;;;;;5041149;28;20032;-89
2022/12/22 04:05:28;;;;;;;5.18;4.30;;;11.70;79.00;;;;;;5075159;28;20101;-89
2022/12/22 04:07:54;;;;;;;5.05;4.25;;;11.70;79.00;;;;;;5057777;28;20028;-88
2022/12/22 04:13:04;;;;;;;5.45;4.43;;;11.70;79.00;;;;;;5060446;28;20037;-89
2022/12/22 04:15:31;;;;;;;4.97;4.05;;;11.70;78.90;;;;;;5045105;28;20035;-89
2022/12/22 04:17:58;;;;;;;5.22;4.32;;;11.80;79.00;;;;;;5058127;28;20457;-88
2022/12/22 04:20:25;;;;;;;5.15;4.35;;;11.80;79.00;;;;;;5058318;28;20037;-89
2022/12/22 04:22:52;;;;;;;5.30;4.22;;;11.70;79.00;;;;;;5057637;28;20032;-89
2022/12/22 04:25:18;;;;;;;4.90;4.20;;;11.70;79.00;;;;;;5057509;28;20029;-88
2022/12/22 04:27:44;;;;;;;4.55;3.97;;;11.80;79.00;;;;;;5040921;28;20035;-89
2022/12/22 04:30:11;;;;;;;5.03;4.35;;;11.80;79.00;;;;;;5073367;28;20397;-88
2022/12/22 04:32:37;;;;;;;4.93;4.25;;;11.80;79.10;;;;;;5057144;28;20039;-89
2022/12/22 04:35:03;;;;;;;4.60;3.90;;;11.80;79.10;;;;;;5057045;28;20119;-89
2022/12/22 04:37:29;;;;;;;4.88;4.03;;;11.70;79.00;;;;;;5057822;28;20021;-89
2022/12/22 04:39:55;;;;;;;5.38;4.10;;;11.70;79.00;;;;;;5040802;28;20086;-89
2022/12/22 04:42:21;;;;;;;4.72;4.13;;;11.70;79.00;;;;;;5056984;28;20397;-88
2022/12/22 04:44:47;;;;;;;4.75;3.75;;;11.80;79.10;;;;;;5074270;28;20029;-88
2022/12/22 04:47:12;;;;;;;5.43;4.47;;;11.70;79.00;;;;;;5057123;28;20572;-88
2022/12/22 04:49:38;;;;;;;5.10;4.18;;;11.80;79.00;;;;;;5073393;28;20044;-89
2022/12/22 04:52:04;;;;;;;4.88;4.38;;;11.80;79.00;;;;;;5056487;28;20166;-89
2022/12/22 04:54:30;;;;;;;4.88;4.18;;;11.80;79.00;;;;;;5073911;28;20032;-89
2022/12/22 04:56:56;;;;;;;4.68;3.75;;;11.80;79.00;;;;;;5056577;28;20165;-87
2022/12/22 04:59:22;;;;;;;4.40;3.78;;;11.80;79.00;;;;;;5040918;28;20058;-89
2022/12/22 05:01:48;;;;;;;5.07;4.05;;;11.80;79.00;;;;;;5073250;28;20036;-88
2022/12/22 05:04:13;;;;;;;5.20;4.32;;;11.80;78.90;;;;;;5056887;28;20032;-89
2022/12/22 05:06:39;;;;;;;4.90;4.10;;;11.80;79.00;;;;;;5056650;28;20454;-89
2022/12/22 05:09:05;;;;;;;5.28;4.35;;;11.80;78.90;;;;;;5056698;28;20036;-89
2022/12/22 05:11:31;;;;;;;4.90;4.30;;;11.80;79.00;;;;;;5040069;28;20064;-89
2022/12/22 05:13:56;;;;;;;5.43;4.13;;;11.80;78.90;;;;;;5057255;28;20028;-88
2022/12/22 05:16:22;;;;;;;5.25;4.25;;;11.80;79.00;;;;;;5056681;28;20021;-88
2022/12/22 05:18:48;;;;;;;4.65;3.80;;;11.80;78.90;;;;;;5056371;28;20021;-89
2022/12/22 05:21:17;;;;;;;5.15;4.45;;;11.80;78.90;;;;;;5073566;28;20039;-88
2022/12/22 05:23:43;;;;;;;5.05;4.32;;;11.80;78.90;;;;;;5056794;28;20504;-88
2022/12/22 05:26:10;;;;;;;6.18;4.28;;;11.80;78.90;;;;;;5056228;28;20051;-88
2022/12/22 05:28:36;;;;;;;5.50;4.40;;;11.80;78.90;;;;;;5039898;28;20021;-85
2022/12/22 05:31:16;;;;;;;4.95;4.13;;;11.80;78.90;;;;;;5056751;28;20024;-88
2022/12/22 05:33:42;;;;;;;5.38;4.43;;;11.80;78.90;;;;;;5056190;28;20401;-88
2022/12/22 05:36:08;;;;;;;5.82;4.60;;;11.80;79.50;;;;;;5073723;28;20025;-90
2022/12/22 05:38:34;;;;;;;5.93;4.57;;;11.80;78.80;;;;;;5073385;28;20028;-89
2022/12/22 05:41:00;;;;;;;5.07;4.55;;;11.80;78.80;;;;;;5056780;28;20106;-90
2022/12/22 05:43:25;;;;;;;5.00;4.40;;;11.80;78.80;;;;;;5058013;28;20493;-90
2022/12/22 05:45:52;;;;;;;5.07;4.25;;;11.80;78.80;;;;;;5073664;28;20100;-88
2022/12/22 05:48:18;;;;;;;5.53;4.55;;;11.80;78.80;;;;;;5073062;28;20043;-90
2022/12/22 05:50:44;;;;;;;4.90;4.18;;;11.80;78.90;;;;;;5073035;28;20583;-89
2022/12/22 05:53:10;;;;;;;5.22;4.35;;;11.80;78.90;;;;;;5056436;28;20032;-88
2022/12/22 05:55:36;;;;;;;5.70;4.57;;;11.80;78.80;;;;;;5056928;28;20028;-87
2022/12/22 05:58:02;;;;;;;5.20;4.28;;;11.80;78.80;;;;;;5059929;28;20033;-91
2022/12/22 06:00:29;;;;;;;5.93;4.53;;;11.80;78.80;;;;;;5060381;28;20083;-87
2022/12/22 06:02:55;;;;;;;5.97;4.72;;;11.80;78.80;;;;;;5059648;28;20056;-85
2022/12/22 06:05:21;;;;;;;6.10;4.70;;;11.80;78.80;;;;;;5059671;28;20055;-84
2022/12/22 06:07:47;;;;;;;6.03;4.38;;;11.80;78.80;;;;;;5076491;28;20139;-88
2022/12/22 06:10:13;;;;;;;6.20;5.20;;;11.80;78.80;;;;;;5043346;28;20098;-83
2022/12/22 06:12:40;;;;;;;5.90;4.95;;;11.80;78.80;;;;;;5076865;28;20027;-88
2022/12/22 06:15:08;;;;;;;5.72;4.72;;;11.80;78.80;;;;;;5059807;28;20103;-87
2022/12/22 06:17:33;;;;;;;5.75;4.38;;;11.80;78.80;;;;;;5059595;28;20109;-88
2022/12/22 06:19:59;;;;;;;5.75;4.80;;;11.80;78.80;;;;;;5078834;28;20477;-88
2022/12/22 06:22:25;;;;;;;5.93;4.97;;;11.80;78.70;;;;;;5060273;28;20469;-88
2022/12/22 06:24:51;;;;;;;5.93;5.07;;;11.90;78.80;;;;;;5059650;28;20033;-92
2022/12/22 06:27:17;;;;;;;6.18;4.75;;;11.80;78.80;;;;;;5075947;28;20032;-88
2022/12/22 06:29:42;;;;;;;7.03;4.82;;;11.80;78.80;;;;;;5075967;28;20078;-88
2022/12/22 06:32:08;;;;;;;5.75;4.70;;;11.80;78.70;;;;;;5043427;28;20488;-88
2022/12/22 06:34:34;;;;;;;6.13;5.10;;;11.90;78.80;;;;;;5076650;28;20041;-86
2022/12/22 06:37:00;;;;;;;5.93;4.75;;;11.90;78.80;;;;;;5043354;28;20036;-87
2022/12/22 06:39:25;;;;;;;5.65;4.68;;;11.80;78.70;;;;;;5059531;28;20033;-87
2022/12/22 06:44:35;;;;;;;6.30;5.25;;;11.90;78.80;;;;;;5059471;28;20060;-85
2022/12/22 06:47:01;;;;;;;5.95;5.07;;;11.80;78.80;;;;;;5076499;28;20455;-87
2022/12/22 06:49:27;;;;;;;6.25;5.15;;;11.90;78.80;;;;;;5042775;28;20036;-87
2022/12/22 06:51:52;;;;;;;6.10;4.75;;;11.90;78.80;;;;;;5059076;28;20066;-86
2022/12/22 06:54:18;;;;;;;6.40;5.53;;;11.90;78.80;;;;;;5059246;28;20029;-91
2022/12/22 06:56:44;;;;;;;6.40;5.13;;;11.80;78.80;;;;;;5076805;28;20028;-85
2022/12/22 06:59:10;;;;;;;6.55;5.03;;;11.80;78.80;;;;;;5059853;28;20123;-84
2022/12/22 07:01:35;;;;;;;6.20;5.05;;;11.80;78.80;;;;;;5059163;28;20060;-88
2022/12/22 07:04:01;;;;;;;6.32;5.25;;;11.90;78.80;;;;;;5059031;28;20032;-86
2022/12/22 07:06:27;;;;;;;7.22;5.45;;;11.90;78.80;;;;;;5059034;28;20086;-86
2022/12/22 07:08:53;;;;;;;6.35;5.20;;;11.90;78.80;;;;;;5074551;28;20036;-86
2022/12/22 07:11:18;;;;;;;6.57;5.22;;;11.90;78.80;;;;;;5045217;28;20021;-85
2022/12/22 07:13:44;;;;;;;6.55;5.30;;;11.80;78.80;;;;;;5025718;28;20077;-86
2022/12/22 07:16:10;;;;;;;6.40;5.13;;;11.90;78.80;;;;;;5042210;28;20062;-87
2022/12/22 07:18:38;;;;;;;6.45;4.97;;;11.90;78.80;;;;;;5075442;28;20028;-84
2022/12/22 07:21:06;;;;;;;6.47;5.15;;;11.90;78.80;;;;;;5075385;28;20036;-85
2022/12/22 07:23:33;;;;;;;6.57;5.15;;;11.90;79.10;;;;;;5041759;28;20099;-85
2022/12/22 07:25:59;;;;;;;6.80;5.30;;;11.80;78.80;;;;;;5076305;28;20025;-85
2022/12/22 07:28:26;;;;;;;7.38;5.40;;;11.80;78.80;;;;;;5058411;28;20123;-86
2022/12/22 07:30:53;;;;;;;7.43;5.63;;;11.90;78.80;;;;;;5054689;28;20043;-85
2022/12/22 07:33:19;;;;;;;6.90;5.55;;;11.90;78.80;;;;;;5055207;28;20136;-86
2022/12/22 07:35:45;;;;;;;6.50;5.20;;;11.90;78.80;;;;;;5054883;28;20036;-86
2022/12/22 07:38:12;;;;;;;7.38;5.38;;;11.90;78.80;;;;;;5054875;28;20053;-86
2022/12/22 07:40:37;;;;;;;6.28;4.65;;;11.90;78.80;;;;;;5038213;28;20078;-86
2022/12/22 07:43:03;;;;;;;7.10;5.47;;;11.90;78.80;;;;;;5022538;28;20041;-88
2022/12/22 07:45:29;;;;;;;6.15;5.18;;;11.90;78.80;;;;;;5055340;28;20370;-86
2022/12/22 07:47:59;;;;;;;7.20;5.40;;;11.90;78.80;;;;;;5021627;28;20482;-87
2022/12/22 07:50:26;;;;;;;6.60;5.10;;;11.90;78.80;;;;;;5038241;28;20486;-87
2022/12/22 07:53:03;;;;;;;6.97;5.03;;;11.90;78.90;;;;;;5055086;28;20033;-85
2022/12/22 07:55:34;;;;;;;6.13;4.95;;;11.80;78.80;;;;;;5055197;28;20047;-86
2022/12/22 07:58:00;;;;;;;7.22;5.15;;;11.80;78.80;;;;;;5055936;28;20147;-86
2022/12/22 08:00:26;;;;;;;6.85;5.13;;;11.80;78.80;;;;;;5055100;28;20040;-86
2022/12/22 08:02:54;;;;;;;6.60;4.90;;;11.80;78.80;;;;;;5072316;28;20041;-88
2022/12/22 08:05:21;;;;;;;6.55;5.13;;;11.80;78.90;;;;;;5055741;28;20033;-84
2022/12/22 08:07:51;;;;;;;6.90;4.90;;;11.80;78.90;;;;;;5055071;28;20052;-83
2022/12/22 08:10:19;;;;;;;6.53;4.93;;;11.80;78.90;;;;;;5038101;28;20091;-91
2022/12/22 08:12:45;;;;;;;7.10;5.65;;;11.80;79.50;;;;;;5070853;28;20108;-83
2022/12/22 08:15:11;;;;;;;6.95;5.32;;;11.80;78.80;;;;;;5055719;28;20122;-87
2022/12/22 08:17:37;;;;;;;6.15;4.63;;;11.80;78.90;;;;;;5054589;28;20029;-86
2022/12/22 08:20:04;;;;;;;7.10;5.28;;;11.80;78.90;;;;;;5020815;28;20056;-87
2022/12/22 08:22:31;;;;;;;6.47;4.82;;;11.80;78.90;;;;;;5053896;28;20021;-89
2022/12/22 08:24:57;;;;;;;6.82;5.15;;;11.80;78.90;;;;;;5053953;28;20485;-90
2022/12/22 08:27:38;;;;;;;7.05;5.60;;;11.80;78.90;;;;;;5044457;28;20035;-90
2022/12/22 08:30:06;;;;;;;6.90;5.22;;;11.80;79.00;;;;;;5043365;28;20493;-89
2022/12/22 08:32:33;;;;;;;6.50;5.00;;;11.80;78.90;;;;;;5034441;28;20029;-89
2022/12/22 08:34:59;;;;;;;7.10;5.25;;;11.80;78.90;;;;;;5051401;28;20489;-90
2022/12/22 08:37:27;;;;;;;7.35;5.68;;;11.80;78.90;;;;;;5035124;28;20064;-88
2022/12/22 08:40:00;;;;;;;7.70;5.78;;;11.80;79.00;;;;;;5034937;28;20033;-90
2022/12/22 08:42:26;;;;;;;8.10;5.70;;;11.80;78.90;;;;;;5050573;28;20038;-86
2022/12/22 08:44:52;;;;;;;8.80;6.47;;;11.80;78.90;;;;;;5033775;28;20056;-88
2022/12/22 08:47:22;;;;;;;8.50;5.55;;;11.80;78.90;;;;;;5033789;28;20064;-88
2022/12/22 08:49:48;;;;;;;7.10;5.35;;;11.80;78.90;;;;;;5034814;28;20068;-87
2022/12/22 08:52:15;;;;;;;8.30;5.82;;;11.80;78.90;;;;;;5033811;28;20036;-89
2022/12/22 08:54:40;;;;;;;8.02;5.60;;;11.80;79.00;;;;;;5050223;28;20040;-88
2022/12/22 08:57:06;;;;;;;8.15;6.07;;;11.80;79.00;;;;;;5033990;28;20443;-88
2022/12/22 08:59:32;;;;;;;7.25;5.72;;;11.80;79.00;;;;;;5035107;28;20037;-87
2022/12/22 09:02:03;;;;;;;7.18;5.25;;;11.80;78.90;;;;;;5033240;28;20045;-88
2022/12/22 09:04:33;;;;;;;7.97;5.78;;;11.80;78.90;;;;;;5050343;28;20033;-89
2022/12/22 09:07:01;;;;;;;7.75;5.63;;;11.80;78.90;;;;;;5034244;28;20030;-90
2022/12/22 09:09:31;;;;;;;7.70;5.53;;;11.80;78.90;;;;;;5034478;28;20033;-83
2022/12/22 09:11:57;;;;;;;7.97;5.68;;;11.80;79.00;;;;;;5035002;28;20041;-88
2022/12/22 09:14:23;;;;;;;8.52;5.80;;;11.80;78.90;;;;;;5033109;28;20383;-88
2022/12/22 09:16:49;;;;;;;8.35;5.97;;;11.80;78.90;;;;;;5000752;28;20462;-88
2022/12/22 09:19:15;;;;;;;8.02;6.00;;;11.80;78.90;;;;;;5033326;28;20041;-88
2022/12/22 09:21:41;;;;;;;7.57;5.38;;;11.80;78.90;;;;;;5000764;28;20056;-89
2022/12/22 09:24:07;;;;;;;8.05;6.00;;;11.80;78.90;;;;;;5017079;28;20470;-87
2022/12/22 09:26:33;;;;;;;9.05;6.35;;;11.80;78.90;;;;;;5032988;28;20034;-87
2022/12/22 09:28:59;;;;;;;7.18;5.38;;;11.80;78.90;;;;;;5037708;28;20055;-86
2022/12/22 09:31:26;;;;;;;8.32;6.05;;;11.80;78.90;;;;;;5053042;28;20025;-86
2022/12/22 09:33:52;;;;;;;8.85;6.13;;;11.80;78.90;;;;;;5057882;28;20111;-85
2022/12/22 09:36:21;;;;;;;8.18;6.10;;;11.80;78.90;;;;;;5073662;28;20117;-84
2022/12/22 09:38:47;;;;;;;8.10;6.32;;;11.80;78.90;;;;;;5056980;28;20090;-87
2022/12/22 09:41:24;;;;;;;8.82;6.03;;;11.80;79.00;;;;;;5057163;28;20458;-88
2022/12/22 09:43:50;;;;;;;9.27;6.18;;;11.80;79.00;;;;;;5040323;28;20032;-86
2022/12/22 09:46:23;;;;;;;8.90;5.80;;;11.80;78.90;;;;;;5057889;28;20129;-86
2022/12/22 09:48:50;;;;;;;8.40;6.00;;;11.80;79.00;;;;;;5057885;28;20032;-87
2022/12/22 09:51:17;;;;;;;8.30;5.75;;;11.80;79.00;;;;;;5073679;28;20032;-88
2022/12/22 09:53:46;;;;;;;8.57;5.82;;;11.80;79.00;;;;;;5040673;28;20093;-90
2022/12/22 09:56:14;;;;;;;8.63;6.18;;;11.80;79.00;;;;;;5058692;28;20126;-89
2022/12/22 09:58:41;;;;;;;8.25;5.53;;;11.80;78.90;;;;;;5057182;28;20047;-88
2022/12/22 10:01:27;;;;;;;8.82;6.13;;;11.80;78.90;;;;;;5058028;28;20041;-88
2022/12/22 10:04:11;;;;;;;9.40;6.45;;;11.80;79.00;;;;;;5058495;28;20097;-89
2022/12/22 10:06:43;;;;;;;8.27;6.05;;;11.80;79.00;;;;;;5073343;28;20083;-88
2022/12/22 10:09:22;;;;;;;8.43;5.55;;;11.80;78.90;;;;;;5073951;28;20099;-88
2022/12/22 10:11:57;;;;;;;7.85;5.50;;;11.80;79.00;;;;;;5056648;28;20035;-86
2022/12/22 10:14:41;;;;;;;8.55;5.90;;;11.80;79.00;;;;;;5056589;28;20060;-87
2022/12/22 10:17:25;;;;;;;8.18;5.65;;;11.80;79.00;;;;;;5056525;28;20033;-86
2022/12/22 10:19:53;;;;;;;8.82;5.85;;;11.70;78.90;;;;;;5058219;28;20060;-87
2022/12/22 10:22:32;;;;;;;7.70;5.05;;;11.70;78.80;;;;;;5023538;28;20064;-84
2022/12/22 10:25:03;;;;;;;8.00;5.25;;;11.70;78.90;;;;;;5073015;28;20094;-87
2022/12/22 10:27:32;;;;;;;8.07;5.68;;;11.80;79.00;;;;;;5056579;28;20060;-87
2022/12/22 10:30:20;;;;;;;8.48;6.03;;;11.80;79.00;;;;;;5039581;28;20559;-87
2022/12/22 10:33:17;;;;;;;9.23;5.35;;;11.80;79.00;;;;;;5075539;28;20029;-87
2022/12/22 10:35:54;;;;;;;9.05;5.43;;;11.70;79.50;;;;;;5048246;28;20140;-86
2022/12/22 10:38:26;;;;;;;8.57;5.78;;;11.70;78.90;;;;;;5056166;28;20080;-88
2022/12/22 10:40:56;;;;;;;7.30;5.43;;;11.70;78.80;;;;;;5055893;28;20033;-88
2022/12/22 10:43:37;;;;;;;9.23;5.80;;;11.70;78.90;;;;;;5054225;28;20033;-87
2022/12/22 10:46:04;;;;;;;7.75;5.78;;;11.70;79.00;;;;;;5055901;28;20032;-86
2022/12/22 10:48:36;;;;;;;7.95;5.35;;;11.70;79.00;;;;;;5056594;28;20033;-86
2022/12/22 10:51:06;;;;;;;8.18;5.88;;;11.70;79.00;;;;;;5056074;28;20030;-87
2022/12/22 10:53:46;;;;;;;8.13;5.28;;;11.70;79.00;;;;;;5055343;28;20576;-87
2022/12/22 10:56:25;;;;;;;7.50;4.95;;;11.70;79.00;;;;;;5039477;28;20071;-87
2022/12/22 10:58:52;;;;;;;8.60;5.35;;;11.70;79.00;;;;;;5055173;28;20025;-85
2022/12/22 11:01:44;;;;;;;8.65;5.53;;;11.70;79.00;;;;;;5056919;28;20029;-87
2022/12/22 11:04:25;;;;;;;7.90;4.88;;;11.70;79.00;;;;;;5060227;28;20036;-88
2022/12/22 11:06:53;;;;;;;8.15;5.18;;;11.70;79.00;;;;;;5058852;28;20480;-89
2022/12/22 11:09:19;;;;;;;7.82;5.25;;;11.70;79.00;;;;;;5057799;28;20079;-86
2022/12/22 11:12:23;;;;;;;7.10;4.53;;;11.70;79.00;;;;;;5040526;28;20033;-87
2022/12/22 11:15:15;;;;;;;8.88;5.47;;;11.70;79.10;;;;;;5020275;28;20033;-88
2022/12/22 11:17:44;;;;;;;7.28;4.85;;;11.60;79.00;;;;;;5055010;28;20168;-85
2022/12/22 11:20:46;;;;;;;8.30;5.05;;;11.70;79.00;;;;;;5055321;28;20040;-87
2022/12/22 11:23:34;;;;;;;7.30;4.68;;;11.70;79.10;;;;;;5037874;28;20059;-88
2022/12/22 11:26:05;;;;;;;6.80;4.50;;;11.70;79.10;;;;;;5055440;28;20025;-85
2022/12/22 11:28:54;;;;;;;7.25;4.80;;;11.70;79.10;;;;;;5055820;28;20071;-85
2022/12/22 11:31:42;;;;;;;6.93;4.43;;;11.70;79.10;;;;;;5058323;28;20098;-85
2022/12/22 11:34:17;;;;;;;7.00;4.57;;;11.70;79.10;;;;;;5074994;28;20040;-86
2022/12/22 11:37:19;;;;;;;7.20;4.72;;;11.70;79.10;;;;;;5075804;28;20116;-86
2022/12/22 11:39:53;;;;;;;6.55;4.28;;;11.70;79.10;;;;;;5058278;28;20106;-86
2022/12/22 11:42:53;;;;;;;7.90;5.10;;;11.70;79.10;;;;;;5075099;28;20043;-86
2022/12/22 11:45:46;;;;;;;8.73;4.95;;;11.70;79.10;;;;;;5041879;28;20457;-85
2022/12/22 11:48:30;;;;;;;6.43;4.20;;;11.70;79.10;;;;;;5075545;28;20158;-86
2022/12/22 11:51:05;;;;;;;6.93;4.85;;;11.70;79.10;;;;;;5075160;28;20028;-86
2022/12/22 11:53:54;;;;;;;7.30;4.55;;;11.70;79.10;;;;;;5058202;28;20052;-86
2022/12/22 11:56:41;;;;;;;7.80;4.88;;;11.70;79.10;;;;;;5075866;28;20025;-90
2022/12/22 11:59:32;;;;;;;6.93;4.53;;;11.70;79.00;;;;;;5042017;28;20363;-87
2022/12/22 12:02:32;;;;;;;7.47;5.18;;;11.70;79.10;;;;;;5041120;28;20085;-87
2022/12/22 12:05:18;;;;;;;8.15;5.20;;;11.70;79.10;;;;;;5074502;28;20028;-87
2022/12/22 12:08:19;;;;;;;7.38;4.45;;;11.70;79.00;;;;;;5075090;28;20062;-86
2022/12/22 12:10:55;;;;;;;7.20;4.70;;;11.80;79.10;;;;;;5057641;28;20482;-87
2022/12/22 12:13:33;;;;;;;7.43;4.90;;;11.70;79.00;;;;;;5074068;28;20039;-83
2022/12/22 12:16:24;;;;;;;6.90;4.80;;;11.70;79.10;;;;;;5074535;28;20084;-84
2022/12/22 12:19:00;;;;;;;7.57;4.95;;;11.70;79.10;;;;;;5041005;28;20438;-84
2022/12/22 12:22:00;;;;;;;7.22;4.88;;;11.70;79.10;;;;;;5073833;28;20033;-84
2022/12/22 12:25:20;;;;;;;6.97;4.82;;;11.70;79.10;;;;;;5074344;28;20025;-84
2022/12/22 12:28:13;;;;;;;7.68;4.75;;;11.80;79.20;;;;;;4996779;28;20065;-84
2022/12/22 12:30:51;;;;;;;7.43;5.00;;;11.70;79.10;;;;;;4979002;28;20507;-84
2022/12/22 12:33:26;;;;;;;7.53;5.18;;;11.80;79.20;;;;;;5034195;28;20077;-88
2022/12/22 12:36:12;;;;;;;7.53;4.68;;;11.70;79.20;;;;;;5034895;28;20026;-85
2022/12/22 12:38:56;;;;;;;8.63;5.68;;;11.80;79.20;;;;;;5035527;28;20158;-84
2022/12/22 12:42:01;;;;;;;7.47;5.10;;;11.70;79.20;;;;;;5018884;28;20034;-86
2022/12/22 12:44:32;;;;;;;8.02;5.22;;;11.80;79.30;;;;;;5034309;28;20041;-85
2022/12/22 12:47:04;;;;;;;8.60;5.80;;;11.80;79.20;;;;;;5017205;28;20033;-83
2022/12/22 12:50:09;;;;;;;7.28;5.07;;;11.80;79.20;;;;;;5033726;28;20029;-85
2022/12/22 12:52:38;;;;;;;8.20;4.85;;;11.80;79.30;;;;;;5034060;28;20120;-86
2022/12/22 12:55:22;;;;;;;7.20;4.85;;;11.80;79.20;;;;;;5033655;28;20112;-86
2022/12/22 12:57:49;;;;;;;8.00;5.35;;;11.80;79.30;;;;;;5033742;28;20526;-86
2022/12/22 13:00:42;;;;;;;7.88;5.63;;;11.80;79.80;;;;;;5000835;28;20056;-83
2022/12/22 13:03:31;;;;;;;6.72;4.82;;;11.80;79.30;;;;;;5046814;28;20050;-86
2022/12/22 13:05:58;;;;;;;7.32;4.78;;;11.80;79.20;;;;;;5032471;28;20029;-86
2022/12/22 13:08:29;;;;;;;7.35;4.60;;;11.90;79.20;;;;;;5050345;28;20036;-86
2022/12/22 13:10:55;;;;;;;7.63;4.85;;;11.80;79.20;;;;;;5033130;28;20037;-86
2022/12/22 13:13:20;;;;;;;7.93;5.32;;;11.90;79.20;;;;;;5016079;28;20033;-85
2022/12/22 13:15:48;;;;;;;8.75;5.55;;;11.90;79.20;;;;;;5034208;28;20025;-84
2022/12/22 13:18:23;;;;;;;7.03;4.80;;;11.90;79.10;;;;;;5016593;28;20036;-84
2022/12/22 13:21:02;;;;;;;;;;;11.90;79.10;;;;;;5017035;28;20045;-86
2022/12/22 13:23:34;;;;;;;6.18;4.40;;;11.90;79.00;;;;;;5033147;28;20007;-85
2022/12/22 13:26:11;;;;;;;6.55;4.78;;;11.90;78.80;;;;;;5033397;28;20029;-85
2022/12/22 13:28:40;;;;;;;7.10;4.85;;;11.90;78.90;;;;;;5049436;28;20039;-86
2022/12/22 13:31:17;;;;;;;7.30;5.15;;;12.00;79.00;;;;;;5069841;28;20040;-85
2022/12/22 13:33:44;;;;;;;8.02;5.07;;;12.00;79.00;;;;;;5053891;28;20389;-83
2022/12/22 13:36:25;;;;;;;7.60;5.05;;;11.90;79.00;;;;;;5020148;28;20112;-86
2022/12/22 13:39:10;;;;;;;7.70;5.32;;;12.00;79.10;;;;;;5036407;28;20036;-84
2022/12/22 13:41:39;;;;;;;7.20;4.90;;;12.00;79.00;;;;;;5069723;28;20044;-85
2022/12/22 13:44:10;;;;;;;8.27;5.40;;;12.00;79.00;;;;;;5052776;28;20083;-84
2022/12/22 13:46:37;;;;;;;7.35;4.57;;;11.90;78.90;;;;;;5053887;28;20033;-84
2022/12/22 13:49:07;;;;;;;6.80;4.85;;;12.00;79.00;;;;;;5036262;28;20063;-85
2022/12/22 13:51:36;;;;;;;7.45;4.90;;;12.00;79.00;;;;;;5053354;28;20039;-84
2022/12/22 13:54:03;;;;;;;7.05;4.50;;;12.00;79.00;;;;;;5069448;28;20025;-84
2022/12/22 13:56:51;;;;;;;7.25;5.07;;;12.00;79.00;;;;;;5052730;28;20041;-85
2022/12/22 13:59:30;;;;;;;6.90;5.00;;;12.00;79.00;;;;;;5052910;28;20040;-84
2022/12/22 14:02:15;;;;;;;7.90;5.38;;;12.00;79.00;;;;;;5052913;28;20533;-84
2022/12/22 14:04:44;;;;;;;6.95;4.55;;;12.00;79.00;;;;;;5052485;28;20458;-83
2022/12/22 14:07:16;;;;;;;7.53;5.20;;;12.00;78.90;;;;;;5052506;28;20025;-84
2022/12/22 14:09:47;;;;;;;7.70;5.05;;;12.00;79.00;;;;;;5052464;28;20052;-85
2022/12/22 14:12:19;;;;;;;7.68;5.20;;;12.00;79.00;;;;;;5069299;28;20029;-84
2022/12/22 14:14:48;;;;;;;7.43;5.22;;;12.00;79.00;;;;;;5052551;28;20061;-84
2022/12/22 14:17:38;;;;;;;7.85;5.45;;;12.00;79.00;;;;;;5053608;28;20104;-84
2022/12/22 14:20:22;;;;;;;6.97;4.72;;;12.00;79.60;;;;;;5073422;28;20092;-85
2022/12/22 14:22:55;;;;;;;7.15;5.10;;;12.00;79.00;;;;;;5056362;28;20029;-84
2022/12/22 14:25:32;;;;;;;6.97;4.85;;;12.00;79.00;;;;;;5056024;28;20029;-84
2022/12/22 14:27:59;;;;;;;7.10;5.18;;;12.00;79.00;;;;;;5056655;28;20458;-85
2022/12/22 14:30:47;;;;;;;8.30;5.40;;;12.00;79.00;;;;;;5041990;28;20159;-85
2022/12/22 14:33:27;;;;;;;7.55;4.93;;;12.00;79.00;;;;;;5053014;28;20467;-86
2022/12/22 14:36:11;;;;;;;6.78;5.10;;;12.00;79.00;;;;;;5037924;28;20025;-85
2022/12/22 14:38:43;;;;;;;7.07;5.40;;;12.00;79.00;;;;;;5036792;28;20030;-85
2022/12/22 14:44:03;;;;;;;7.82;5.22;;;12.00;79.00;;;;;;5036165;28;20034;-86
2022/12/22 14:46:30;;;;;;;8.55;5.78;;;12.00;79.00;;;;;;5020089;28;20045;-86
2022/12/22 14:48:58;;;;;;;7.80;5.95;;;12.00;79.00;;;;;;5021007;28;20029;-86
2022/12/22 14:51:25;;;;;;;6.60;5.07;;;12.00;79.10;;;;;;5021071;28;20538;-86
2022/12/22 14:54:01;;;;;;;7.68;5.53;;;12.00;79.00;;;;;;5036017;28;20029;-86
2022/12/22 14:56:27;;;;;;;7.28;5.30;;;12.00;79.10;;;;;;5035455;28;20037;-86
2022/12/22 14:59:19;;;;;;;8.25;5.88;;;12.00;79.00;;;;;;5019284;28;20036;-84
2022/12/22 15:02:00;;;;;;;8.25;5.72;;;12.00;79.10;;;;;;5052436;28;20034;-84
2022/12/22 15:04:26;;;;;;;7.80;5.57;;;12.00;79.00;;;;;;5035780;28;20037;-86
2022/12/22 15:07:04;;;;;;;8.57;6.13;;;12.00;79.00;;;;;;5019462;28;20029;-84
2022/12/22 15:09:30;;;;;;;7.40;5.78;;;12.00;79.00;;;;;;5035694;28;20036;-84
2022/12/22 15:12:15;;;;;;;7.50;5.93;;;12.00;79.00;;;;;;4986504;28;20100;-84
2022/12/22 15:14:41;;;;;;;9.52;6.75;;;12.00;79.00;;;;;;5035586;28;20045;-85
2022/12/22 15:17:22;;;;;;;8.00;5.75;;;12.00;79.00;;;;;;5019012;28;20030;-84
2022/12/22 15:19:49;;;;;;;8.70;6.35;;;12.00;79.00;;;;;;5051691;28;20051;-85
2022/12/22 15:22:14;;;;;;;8.85;6.53;;;12.00;79.00;;;;;;5035398;28;20033;-86
2022/12/22 15:24:40;;;;;;;9.00;6.60;;;12.00;79.00;;;;;;5018716;28;20431;-87
2022/12/22 15:27:06;;;;;;;8.27;6.03;;;12.00;79.00;;;;;;5002431;28;20103;-89
2022/12/22 15:29:32;;;;;;;8.93;6.38;;;12.00;79.00;;;;;;5040808;28;20076;-86
2022/12/22 15:31:57;;;;;;;8.20;6.07;;;12.00;79.00;;;;;;5054946;28;20124;-87
2022/12/22 15:34:30;;;;;;;9.23;6.38;;;12.00;79.00;;;;;;5054907;28;20088;-85
2022/12/22 15:36:57;;;;;;;8.32;6.45;;;12.00;79.00;;;;;;5055425;28;20029;-83
2022/12/22 15:39:23;;;;;;;8.93;6.40;;;12.00;78.90;;;;;;5038091;28;20474;-86
2022/12/22 15:41:49;;;;;;;7.60;5.85;;;12.00;78.90;;;;;;5054315;28;20060;-85
2022/12/22 15:44:15;;;;;;;8.85;6.95;;;12.00;79.60;;;;;;5071554;28;20064;-86
2022/12/22 15:46:43;;;;;;;8.13;6.20;;;12.00;79.00;;;;;;5054419;28;20094;-86
2022/12/22 15:49:19;;;;;;;8.35;6.28;;;12.00;79.00;;;;;;5055700;28;20043;-87
2022/12/22 15:51:50;;;;;;;8.05;6.00;;;12.00;79.00;;;;;;5037893;28;20032;-86
2022/12/22 15:54:17;;;;;;;8.15;6.30;;;11.90;78.90;;;;;;5054381;28;20029;-90
2022/12/22 15:56:43;;;;;;;8.55;6.43;;;12.00;78.90;;;;;;5054761;28;20065;-88
2022/12/22 15:59:26;;;;;;;8.23;5.95;;;12.00;78.90;;;;;;5037645;28;20124;-89
2022/12/22 16:01:58;;;;;;;7.68;6.00;;;12.00;79.00;;;;;;5054876;28;20036;-88
2022/12/22 16:04:27;;;;;;;8.27;6.32;;;12.00;78.90;;;;;;5055682;28;20025;-88
2022/12/22 16:06:53;;;;;;;8.23;6.40;;;12.00;78.90;;;;;;5038144;28;20036;-88
2022/12/22 16:09:21;;;;;;;7.85;6.07;;;11.90;78.90;;;;;;5071509;28;20048;-90
2022/12/22 16:11:48;;;;;;;8.10;6.57;;;12.00;79.00;;;;;;5055436;28;20070;-88
2022/12/22 16:14:15;;;;;;;10.00;7.32;;;12.00;79.00;;;;;;5054119;28;20033;-89
2022/12/22 16:16:41;;;;;;;8.50;5.97;;;11.90;78.90;;;;;;5054166;28;20029;-86
2022/12/22 16:19:16;;;;;;;7.63;6.40;;;12.00;78.90;;;;;;5037672;28;20388;-87
2022/12/22 16:21:42;;;;;;;;;;;11.90;78.90;;;;;;5055386;28;20052;-91
2022/12/22 16:24:23;;;;;;;7.28;5.20;;;11.90;78.80;;;;;;5054953;28;19915;-90
2022/12/22 16:26:49;;;;;;;7.60;5.82;;;11.90;78.80;;;;;;5055171;28;20048;-90
2022/12/22 16:29:16;;;;;;;7.30;5.85;;;11.90;78.80;;;;;;5054131;28;20057;-89
2022/12/22 16:31:41;;;;;;;9.43;6.72;;;11.90;78.80;;;;;;5037604;28;20025;-89
2022/12/22 16:34:11;;;;;;;7.93;5.80;;;11.90;78.80;;;;;;5037315;28;20520;-91
2022/12/22 16:36:37;;;;;;;8.18;6.13;;;11.90;78.90;;;;;;5037445;28;20116;-89
2022/12/22 16:39:03;;;;;;;8.07;6.38;;;11.90;78.90;;;;;;5037391;28;20033;-87
2022/12/22 16:41:29;;;;;;;7.03;5.80;;;11.90;78.90;;;;;;5054056;28;20029;-91
2022/12/22 16:43:57;;;;;;;7.95;6.35;;;11.90;78.90;;;;;;5036816;28;20072;-90
2022/12/22 16:46:23;;;;;;;8.23;6.65;;;11.90;78.90;;;;;;5053631;28;20055;-90
2022/12/22 16:48:53;;;;;;;8.60;6.57;;;11.90;78.90;;;;;;5036881;28;20064;-89